createdAt,value
2017-08-12T00:01:38.405Z,93.50
2017-08-12T00:04:13.211Z,93.80
2017-08-12T00:06:47.630Z,93.90
2017-08-12T00:09:22.448Z,93.90
2017-08-12T00:11:58.027Z,94.20
2017-08-12T00:14:34.072Z,93.50
2017-08-12T00:17:08.463Z,93.70
2017-08-12T00:19:43.953Z,93.80
2017-08-12T00:22:18.870Z,94.00
2017-08-12T00:24:52.567Z,93.10
2017-08-12T00:27:27.188Z,93.90
2017-08-12T00:30:01.984Z,94.00
2017-08-12T00:32:36.706Z,94.00
2017-08-12T00:35:11.348Z,93.70
2017-08-12T00:37:46.235Z,93.60
2017-08-12T00:40:20.874Z,93.60
2017-08-12T00:42:54.997Z,93.60
2017-08-12T00:45:29.268Z,93.30
2017-08-12T00:48:03.195Z,92.90
2017-08-12T00:50:36.896Z,93.10
2017-08-12T00:53:10.689Z,93.30
2017-08-12T00:55:44.687Z,93.10
2017-08-12T00:58:18.525Z,93.40
2017-08-12T01:00:53.282Z,93.40
2017-08-12T01:03:27.602Z,93.30
2017-08-12T01:06:02.237Z,93.40
2017-08-12T01:08:36.973Z,93.20
2017-08-12T01:11:11.494Z,93.20
2017-08-12T01:13:46.153Z,93.40
2017-08-12T01:16:19.925Z,93.10
2017-08-12T01:18:53.810Z,93.50
2017-08-12T01:21:28.272Z,93.70
2017-08-12T01:24:03.797Z,93.30
2017-08-12T01:26:39.035Z,93.70
2017-08-12T01:29:13.679Z,93.70
2017-08-12T01:31:47.494Z,93.70
2017-08-12T01:34:22.014Z,93.20
2017-08-12T01:36:57.135Z,93.10
2017-08-12T01:39:32.955Z,93.30
2017-08-12T01:42:06.790Z,93.50
2017-08-12T01:44:40.664Z,93.50
2017-08-12T01:47:15.198Z,93.50
2017-08-12T01:49:49.608Z,93.60
2017-08-12T01:52:24.910Z,94.10
2017-08-12T01:54:58.671Z,94.00
2017-08-12T01:57:33.196Z,93.90
2017-08-12T02:00:06.866Z,93.60
2017-08-12T02:02:42.539Z,94.00
2017-08-12T02:05:16.798Z,93.90
2017-08-12T02:07:51.229Z,94.00
2017-08-12T02:10:27.039Z,94.00
2017-08-12T02:13:00.840Z,94.00
2017-08-12T02:15:35.683Z,93.90
2017-08-12T02:18:10.096Z,93.60
2017-08-12T02:20:45.565Z,93.70
2017-08-12T02:23:19.549Z,93.60
2017-08-12T02:25:53.610Z,93.70
2017-08-12T02:28:27.640Z,93.70
2017-08-12T02:31:01.502Z,93.50
2017-08-12T02:33:36.002Z,93.70
2017-08-12T02:36:10.349Z,93.50
2017-08-12T02:38:44.227Z,93.90
2017-08-12T02:41:18.936Z,93.80
2017-08-12T02:43:53.282Z,93.80
2017-08-12T02:46:26.948Z,93.70
2017-08-12T02:49:01.628Z,93.60
2017-08-12T02:51:35.363Z,93.20
2017-08-12T02:54:09.516Z,93.10
2017-08-12T02:56:43.356Z,93.30
2017-08-12T02:59:17.995Z,93.60
2017-08-12T03:01:51.784Z,93.50
2017-08-12T03:04:27.215Z,93.50
2017-08-12T03:07:03.669Z,93.60
2017-08-12T03:09:37.433Z,93.50
2017-08-12T03:12:11.310Z,93.70
2017-08-12T03:14:46.637Z,93.50
2017-08-12T03:17:22.935Z,93.40
2017-08-12T03:19:56.873Z,93.40
2017-08-12T03:22:31.612Z,93.70
2017-08-12T03:25:07.322Z,93.70
2017-08-12T03:27:41.720Z,93.60
2017-08-12T03:30:17.398Z,93.50
2017-08-12T03:32:51.430Z,93.40
2017-08-12T03:35:25.856Z,93.40
2017-08-12T03:38:01.718Z,93.30
2017-08-12T03:40:36.484Z,93.40
2017-08-12T03:43:10.432Z,93.40
2017-08-12T03:45:45.074Z,93.50
2017-08-12T03:48:18.806Z,93.50
2017-08-12T03:50:52.613Z,93.90
2017-08-12T03:53:26.472Z,93.40
2017-08-12T03:56:00.378Z,93.60
2017-08-12T03:58:34.313Z,93.50
2017-08-12T04:01:09.008Z,93.60
2017-08-12T04:03:42.760Z,93.60
2017-08-12T04:06:18.147Z,93.70
2017-08-12T04:08:52.815Z,94.00
2017-08-12T04:11:28.272Z,94.00
2017-08-12T04:14:02.917Z,94.30
2017-08-12T04:16:37.296Z,94.30
2017-08-12T04:19:11.077Z,94.30
2017-08-12T04:21:44.938Z,94.20
2017-08-12T04:24:19.732Z,94.10
2017-08-12T04:26:55.408Z,94.00
2017-08-12T04:29:29.682Z,94.40
2017-08-12T04:32:04.367Z,94.40
2017-08-12T04:34:39.154Z,94.40
2017-08-12T04:37:13.016Z,94.30
2017-08-12T04:39:47.065Z,94.00
2017-08-12T04:42:20.705Z,93.90
2017-08-12T04:44:55.224Z,94.00
2017-08-12T04:47:29.114Z,93.50
2017-08-12T04:50:03.143Z,94.00
2017-08-12T04:52:37.123Z,93.70
2017-08-12T04:55:11.111Z,93.90
2017-08-12T04:57:45.688Z,93.70
2017-08-12T05:00:19.683Z,93.60
2017-08-12T05:02:56.292Z,94.00
2017-08-12T05:05:31.060Z,94.00
2017-08-12T05:08:05.072Z,94.00
2017-08-12T05:10:39.641Z,94.10
2017-08-12T05:13:13.630Z,94.10
2017-08-12T05:15:49.364Z,94.00
2017-08-12T05:18:23.430Z,93.70
2017-08-12T05:20:57.435Z,93.70
2017-08-12T05:23:32.324Z,93.60
2017-08-12T05:26:06.086Z,93.80
2017-08-12T05:28:40.024Z,94.00
2017-08-12T05:31:14.578Z,93.90
2017-08-12T05:33:49.156Z,93.60
2017-08-12T05:36:23.818Z,93.40
2017-08-12T05:38:58.352Z,93.40
2017-08-12T05:41:33.850Z,93.70
2017-08-12T05:44:09.098Z,93.70
2017-08-12T05:46:43.045Z,93.60
2017-08-12T05:49:16.869Z,93.90
2017-08-12T05:51:52.542Z,93.50
2017-08-12T05:54:26.969Z,93.50
2017-08-12T05:57:00.894Z,93.90
2017-08-12T05:59:35.385Z,93.80
2017-08-12T06:02:09.203Z,94.20
2017-08-12T06:04:44.191Z,94.10
2017-08-12T06:07:19.261Z,93.80
2017-08-12T06:09:53.818Z,93.70
2017-08-12T06:12:28.282Z,93.90
2017-08-12T06:15:04.101Z,93.90
2017-08-12T06:17:38.568Z,94.10
2017-08-12T06:20:14.435Z,94.30
2017-08-12T06:22:48.929Z,94.30
2017-08-12T06:25:23.523Z,94.10
2017-08-12T06:27:58.232Z,94.00
2017-08-12T06:30:33.870Z,94.00
2017-08-12T06:33:09.043Z,94.00
2017-08-12T06:35:42.866Z,94.00
2017-08-12T06:38:17.928Z,94.00
2017-08-12T06:40:52.910Z,94.10
2017-08-12T06:43:26.893Z,94.40
2017-08-12T06:46:02.095Z,93.80
2017-08-12T06:48:36.863Z,93.90
2017-08-12T06:51:10.709Z,94.30
2017-08-12T06:53:44.579Z,94.60
2017-08-12T06:56:18.580Z,94.00
2017-08-12T06:58:52.432Z,94.40
2017-08-12T07:01:26.276Z,94.00
2017-08-12T07:04:01.437Z,94.00
2017-08-12T07:06:37.078Z,94.30
2017-08-12T07:09:12.691Z,94.20
2017-08-12T07:11:49.336Z,93.70
2017-08-12T07:14:25.408Z,93.20
2017-08-12T07:16:59.297Z,93.30
2017-08-12T07:19:33.267Z,93.10
2017-08-12T07:22:07.772Z,92.50
2017-08-12T07:24:42.070Z,92.40
2017-08-12T07:27:15.919Z,92.70
2017-08-12T07:29:53.056Z,93.20
2017-08-12T07:32:26.771Z,93.10
2017-08-12T07:35:01.297Z,92.90
2017-08-12T07:37:35.253Z,92.80
2017-08-12T07:40:09.054Z,92.50
2017-08-12T07:42:45.150Z,92.40
2017-08-12T07:45:19.111Z,92.40
2017-08-12T07:47:53.629Z,93.00
2017-08-12T07:50:29.350Z,92.80
2017-08-12T07:53:04.259Z,92.20
2017-08-12T07:55:39.622Z,92.20
2017-08-12T07:58:13.482Z,91.90
2017-08-12T08:00:48.160Z,92.00
2017-08-12T08:03:22.430Z,92.00
2017-08-12T08:05:58.353Z,92.70
2017-08-12T08:08:34.155Z,91.80
2017-08-12T08:11:09.656Z,92.50
2017-08-12T08:13:44.624Z,92.10
2017-08-12T08:16:21.659Z,92.00
2017-08-12T08:18:56.559Z,90.80
2017-08-12T08:21:30.295Z,91.00
2017-08-12T08:24:04.347Z,91.70
2017-08-12T08:26:38.802Z,91.40
2017-08-12T08:29:13.581Z,91.10
2017-08-12T08:31:49.937Z,90.10
2017-08-12T08:34:24.290Z,90.70
2017-08-12T08:36:59.293Z,91.20
2017-08-12T08:39:34.158Z,90.00
2017-08-12T08:42:08.883Z,90.50
2017-08-12T08:44:43.963Z,90.60
2017-08-12T08:47:17.756Z,90.80
2017-08-12T08:49:53.098Z,90.60
2017-08-12T08:52:27.105Z,90.60
2017-08-12T08:55:02.512Z,90.80
2017-08-12T08:57:37.187Z,90.80
2017-08-12T09:00:12.548Z,90.20
2017-08-12T09:02:47.487Z,91.00
2017-08-12T09:05:23.331Z,91.10
2017-08-12T09:08:01.328Z,91.20
2017-08-12T09:10:35.866Z,90.30
2017-08-12T09:13:11.908Z,90.40
2017-08-12T09:15:47.717Z,90.20
2017-08-12T09:18:21.635Z,90.20
2017-08-12T09:20:57.224Z,90.20
2017-08-12T09:23:33.420Z,90.30
2017-08-12T09:26:07.802Z,90.00
2017-08-12T09:28:44.547Z,89.70
2017-08-12T09:31:18.301Z,89.60
2017-08-12T09:33:59.330Z,89.20
2017-08-12T09:36:33.208Z,88.80
2017-08-12T09:39:06.944Z,88.70
2017-08-12T09:41:40.943Z,88.30
2017-08-12T09:44:14.878Z,87.50
2017-08-12T09:46:49.408Z,87.70
2017-08-12T09:49:23.432Z,87.60
2017-08-12T09:51:57.241Z,86.10
2017-08-12T09:54:31.021Z,86.50
2017-08-12T09:57:05.652Z,87.20
2017-08-12T09:59:40.219Z,87.80
2017-08-12T10:02:13.886Z,86.70
2017-08-12T10:04:47.838Z,85.70
2017-08-12T10:07:21.546Z,87.60
2017-08-12T10:09:56.449Z,87.60
2017-08-12T10:12:30.188Z,87.20
2017-08-12T10:15:04.827Z,87.00
2017-08-12T10:17:38.757Z,86.90
2017-08-12T10:20:13.384Z,86.50
2017-08-12T10:22:47.943Z,87.30
2017-08-12T10:25:21.749Z,86.60
2017-08-12T10:27:55.868Z,86.80
2017-08-12T10:30:30.715Z,87.40
2017-08-12T10:33:06.786Z,86.70
2017-08-12T10:35:42.242Z,87.30
2017-08-12T10:38:16.115Z,86.40
2017-08-12T10:40:50.327Z,86.90
2017-08-12T10:43:26.136Z,85.30
2017-08-12T10:45:59.800Z,84.70
2017-08-12T10:48:33.643Z,83.90
2017-08-12T10:51:08.009Z,84.50
2017-08-12T10:53:41.853Z,85.00
2017-08-12T10:56:15.664Z,85.00
2017-08-12T10:58:50.854Z,85.00
2017-08-12T11:01:25.934Z,84.00
2017-08-12T11:04:01.236Z,83.90
2017-08-12T11:06:35.306Z,83.80
2017-08-12T11:09:10.488Z,83.80
2017-08-12T11:11:44.365Z,83.20
2017-08-12T11:14:18.642Z,83.30
2017-08-12T11:16:53.630Z,81.70
2017-08-12T11:19:28.548Z,81.60
2017-08-12T11:22:03.155Z,79.40
2017-08-12T11:24:37.682Z,79.10
2017-08-12T11:27:11.488Z,79.10
2017-08-12T11:29:45.308Z,78.80
2017-08-12T11:32:19.147Z,78.70
2017-08-12T11:34:54.417Z,77.80
2017-08-12T11:37:28.390Z,77.80
2017-08-12T11:40:03.203Z,76.80
2017-08-12T11:42:37.105Z,77.80
2017-08-12T11:45:10.932Z,77.00
2017-08-12T11:47:44.773Z,77.60
2017-08-12T11:50:19.542Z,78.50
2017-08-12T11:52:54.287Z,78.40
2017-08-12T11:55:29.105Z,74.10
2017-08-12T11:58:02.967Z,74.20
2017-08-12T12:03:11.856Z,76.20
2017-08-12T12:05:46.693Z,76.10
2017-08-12T12:08:21.051Z,77.20
2017-08-12T12:10:54.965Z,76.00
2017-08-12T12:13:30.719Z,75.30
2017-08-12T12:16:04.600Z,75.20
2017-08-12T12:18:38.356Z,74.50
2017-08-12T12:21:12.209Z,75.20
2017-08-12T12:23:46.135Z,76.20
2017-08-12T12:26:19.966Z,76.60
2017-08-12T12:28:54.365Z,75.20
2017-08-12T12:31:28.260Z,75.20
2017-08-12T12:34:02.030Z,76.80
2017-08-12T12:36:36.835Z,75.00
2017-08-12T12:39:11.631Z,74.00
2017-08-12T12:41:58.399Z,75.20
2017-08-12T12:44:32.292Z,74.20
2017-08-12T12:47:06.336Z,75.50
2017-08-12T12:49:40.083Z,75.30
2017-08-12T12:52:13.835Z,75.00
2017-08-12T12:54:47.813Z,74.30
2017-08-12T12:57:22.748Z,72.80
2017-08-12T12:59:57.361Z,72.40
2017-08-12T13:02:31.584Z,72.40
2017-08-12T13:05:06.133Z,73.10
2017-08-12T13:07:42.202Z,72.10
2017-08-12T13:10:16.863Z,72.00
2017-08-12T13:12:50.787Z,73.20
2017-08-12T13:15:25.548Z,74.00
2017-08-12T13:18:00.108Z,74.00
2017-08-12T13:20:33.947Z,74.10
2017-08-12T13:23:10.215Z,73.70
2017-08-12T13:25:44.093Z,73.70
2017-08-12T13:28:18.933Z,74.00
2017-08-12T13:30:52.520Z,73.90
2017-08-12T13:33:27.101Z,74.00
2017-08-12T13:36:00.997Z,74.00
2017-08-12T13:38:34.856Z,75.40
2017-08-12T13:41:08.568Z,74.40
2017-08-12T13:43:44.107Z,75.70
2017-08-12T13:46:17.952Z,75.70
2017-08-12T13:48:51.745Z,75.20
2017-08-12T13:51:27.958Z,75.30
2017-08-12T13:54:02.054Z,75.50
2017-08-12T13:56:37.324Z,76.30
2017-08-12T13:59:10.984Z,76.70
2017-08-12T14:01:54.581Z,75.50
2017-08-12T14:04:37.470Z,75.40
2017-08-12T14:07:13.415Z,74.80
2017-08-12T14:09:49.450Z,75.60
2017-08-12T14:12:23.302Z,74.60
2017-08-12T14:14:57.572Z,75.10
2017-08-12T14:17:31.619Z,74.40
2017-08-12T14:20:05.408Z,74.10
2017-08-12T14:22:39.166Z,72.50
2017-08-12T14:25:14.007Z,72.50
2017-08-12T14:27:49.644Z,73.50
2017-08-12T14:30:27.952Z,73.50
2017-08-12T14:33:01.791Z,73.80
2017-08-12T14:35:36.459Z,72.60
2017-08-12T14:38:10.355Z,72.60
2017-08-12T14:40:43.963Z,73.10
2017-08-12T14:43:17.913Z,73.10
2017-08-12T14:45:52.802Z,73.30
2017-08-12T14:48:27.581Z,73.50
2017-08-12T14:51:03.303Z,74.20
2017-08-12T14:53:37.275Z,73.20
2017-08-12T14:56:12.009Z,74.60
2017-08-12T14:58:46.773Z,74.40
2017-08-12T15:01:20.724Z,74.90
2017-08-12T15:03:54.636Z,76.00
2017-08-12T15:06:28.495Z,75.70
2017-08-12T15:09:02.314Z,77.80
2017-08-12T15:11:36.060Z,76.90
2017-08-12T15:14:09.986Z,77.10
2017-08-12T15:16:43.763Z,76.80
2017-08-12T15:19:17.784Z,77.60
2017-08-12T15:21:53.232Z,78.70
2017-08-12T15:24:28.754Z,78.60
2017-08-12T15:27:02.513Z,79.80
2017-08-12T15:32:11.337Z,80.10
2017-08-12T15:34:45.151Z,80.50
2017-08-12T15:37:21.529Z,81.10
2017-08-12T15:39:58.540Z,81.00
2017-08-12T15:42:33.411Z,80.70
2017-08-12T15:45:12.169Z,80.20
2017-08-12T15:47:51.658Z,81.60
2017-08-12T15:50:29.360Z,81.80
2017-08-12T15:53:04.606Z,81.00
2017-08-12T15:55:43.224Z,80.80
2017-08-12T15:58:20.788Z,81.50
2017-08-12T16:00:59.270Z,82.10
2017-08-12T16:03:36.720Z,81.80
2017-08-12T16:06:17.555Z,82.00
2017-08-12T16:08:52.608Z,81.90
2017-08-12T16:11:27.296Z,82.40
2017-08-12T16:14:02.784Z,81.90
2017-08-12T16:16:39.293Z,82.10
2017-08-12T16:19:13.470Z,82.50
2017-08-12T16:21:56.454Z,82.10
2017-08-12T16:24:32.559Z,82.50
2017-08-12T16:27:07.891Z,82.20
2017-08-12T16:29:41.998Z,82.20
2017-08-12T16:32:16.013Z,82.30
2017-08-12T16:34:50.985Z,82.60
2017-08-12T16:37:26.253Z,81.60
2017-08-12T16:40:00.748Z,81.60
2017-08-12T16:42:35.629Z,81.70
2017-08-12T16:45:10.875Z,82.70
2017-08-12T16:47:48.992Z,83.00
2017-08-12T16:50:24.783Z,83.40
2017-08-12T16:52:58.860Z,83.90
2017-08-12T16:55:32.717Z,83.80
2017-08-12T16:58:07.179Z,83.70
2017-08-12T17:00:41.214Z,83.70
2017-08-12T17:03:15.663Z,84.20
2017-08-12T17:05:53.211Z,85.30
2017-08-12T17:08:30.083Z,85.80
2017-08-12T17:11:04.869Z,86.50
2017-08-12T17:13:39.714Z,86.50
2017-08-12T17:16:13.697Z,86.80
2017-08-12T17:18:49.072Z,86.40
2017-08-12T17:21:23.035Z,86.40
2017-08-12T17:23:57.010Z,86.90
2017-08-12T17:26:39.327Z,87.30
2017-08-12T17:29:13.900Z,87.90
2017-08-12T17:31:47.630Z,88.10
2017-08-12T17:34:21.484Z,88.40
2017-08-12T17:36:55.304Z,88.00
2017-08-12T17:39:29.148Z,87.90
2017-08-12T17:42:03.105Z,88.00
2017-08-12T17:44:37.048Z,87.80
2017-08-12T17:47:10.792Z,88.10
2017-08-12T17:49:44.717Z,88.90
2017-08-12T17:52:19.605Z,89.00
2017-08-12T17:54:53.500Z,88.80
2017-08-12T17:57:29.259Z,89.70
2017-08-12T18:00:03.219Z,89.90
2017-08-12T18:02:38.940Z,89.20
2017-08-12T18:05:13.671Z,89.10
2017-08-12T18:07:47.459Z,88.70
2017-08-12T18:10:22.168Z,89.40
2017-08-12T18:15:54.127Z,88.90
2017-08-12T18:18:28.388Z,89.10
2017-08-12T18:21:02.150Z,89.00
2017-08-12T18:23:37.529Z,89.10
2017-08-12T18:26:11.294Z,89.20
2017-08-12T18:28:46.720Z,89.10
2017-08-12T18:31:20.541Z,89.30
2017-08-12T18:33:54.229Z,89.20
2017-08-12T18:36:31.041Z,89.40
2017-08-12T18:39:05.134Z,89.40
2017-08-12T18:41:40.330Z,89.60
2017-08-12T18:44:14.329Z,89.30
2017-08-12T18:46:56.328Z,89.70
2017-08-12T18:49:31.027Z,89.40
2017-08-12T18:52:05.031Z,89.20
2017-08-12T18:54:39.693Z,89.30
2017-08-12T18:57:16.683Z,89.40
2017-08-12T18:59:51.303Z,90.00
2017-08-12T19:02:24.979Z,90.00
2017-08-12T19:04:58.812Z,89.40
2017-08-12T19:07:32.532Z,90.00
2017-08-12T19:10:07.068Z,89.80
2017-08-12T19:12:41.486Z,89.70
2017-08-12T19:15:16.104Z,89.40
2017-08-12T19:17:50.622Z,89.40
2017-08-12T19:20:24.537Z,89.40
2017-08-12T19:22:59.147Z,89.60
2017-08-12T19:25:34.571Z,89.40
2017-08-12T19:28:09.435Z,89.50
2017-08-12T19:30:43.360Z,89.60
2017-08-12T19:33:17.850Z,90.10
2017-08-12T19:35:52.171Z,90.10
2017-08-12T19:38:28.168Z,90.40
2017-08-12T19:41:02.351Z,90.20
2017-08-12T19:43:36.093Z,90.30
2017-08-12T19:46:10.221Z,90.40
2017-08-12T19:48:43.895Z,90.50
2017-08-12T19:51:17.984Z,90.40
2017-08-12T19:53:51.752Z,90.20
2017-08-12T19:56:28.592Z,90.00
2017-08-12T19:59:02.555Z,90.00
2017-08-12T20:01:36.448Z,89.60
2017-08-12T20:04:10.283Z,89.80
2017-08-12T20:06:44.085Z,89.10
2017-08-12T20:09:17.962Z,89.30
2017-08-12T20:11:52.218Z,89.40
2017-08-12T20:14:26.957Z,89.40
2017-08-12T20:17:01.478Z,89.40
2017-08-12T20:19:36.216Z,89.70
2017-08-12T20:22:10.923Z,89.50
2017-08-12T20:24:44.859Z,89.40
2017-08-12T20:27:18.658Z,89.30
2017-08-12T20:29:52.581Z,89.40
2017-08-12T20:32:26.492Z,89.10
2017-08-12T20:35:00.899Z,89.40
2017-08-12T20:37:35.638Z,89.80
2017-08-12T20:40:09.870Z,89.80
2017-08-12T20:42:45.104Z,89.80
2017-08-12T20:45:20.688Z,89.90
2017-08-12T20:47:55.344Z,90.00
2017-08-12T20:50:29.602Z,90.00
2017-08-12T20:53:03.582Z,90.10
2017-08-12T20:55:37.682Z,90.00
2017-08-12T20:58:11.475Z,90.00
2017-08-12T21:00:46.042Z,90.10
2017-08-12T21:03:19.873Z,90.30
2017-08-12T21:05:53.725Z,90.30
2017-08-12T21:08:28.010Z,90.40
2017-08-12T21:11:03.199Z,90.30
2017-08-12T21:13:37.859Z,90.30
2017-08-12T21:16:11.587Z,90.20
2017-08-12T21:18:45.336Z,90.20
2017-08-12T21:21:19.717Z,90.10
2017-08-12T21:23:54.094Z,90.10
2017-08-12T21:26:27.982Z,90.10
2017-08-12T21:29:02.561Z,90.30
2017-08-12T21:31:37.944Z,90.30
2017-08-12T21:34:12.700Z,90.30
2017-08-12T21:36:46.438Z,90.30
2017-08-12T21:39:21.083Z,90.50
2017-08-12T21:41:55.572Z,90.50
2017-08-12T21:44:29.190Z,90.50
2017-08-12T21:47:04.608Z,90.50
2017-08-12T21:49:39.122Z,90.30
2017-08-12T21:52:13.049Z,90.30
2017-08-12T21:54:46.982Z,90.40
2017-08-12T21:57:20.864Z,90.40
2017-08-12T21:59:56.350Z,90.50
2017-08-12T22:02:30.102Z,90.50
2017-08-12T22:05:03.720Z,90.40
2017-08-12T22:07:38.792Z,90.60
2017-08-12T22:10:12.557Z,90.50
2017-08-12T22:12:46.315Z,90.60
2017-08-12T22:15:21.203Z,90.70
2017-08-12T22:17:55.106Z,90.80
2017-08-12T22:20:29.143Z,90.70
2017-08-12T22:23:03.843Z,91.00
2017-08-12T22:25:37.700Z,91.00
2017-08-12T22:28:11.923Z,90.90
2017-08-12T22:30:45.787Z,90.60
2017-08-12T22:33:20.617Z,90.70
2017-08-12T22:35:54.688Z,90.70
2017-08-12T22:38:28.700Z,90.80
2017-08-12T22:41:03.203Z,90.80
2017-08-12T22:43:37.069Z,90.80
2017-08-12T22:46:11.436Z,90.90
2017-08-12T22:48:45.222Z,91.40
2017-08-12T22:51:19.305Z,91.20
2017-08-12T22:53:53.176Z,91.20
2017-08-12T22:56:27.686Z,91.10
2017-08-12T22:59:01.506Z,91.00
2017-08-12T23:01:35.763Z,90.90
2017-08-12T23:04:09.900Z,90.90
2017-08-12T23:06:43.702Z,91.00
2017-08-12T23:09:17.564Z,91.10
2017-08-12T23:11:51.513Z,91.00
2017-08-12T23:14:26.201Z,91.70
2017-08-12T23:17:01.273Z,91.60
2017-08-12T23:19:36.043Z,91.60
2017-08-12T23:22:09.835Z,91.60
2017-08-12T23:24:45.697Z,91.50
2017-08-12T23:27:19.580Z,91.10
2017-08-12T23:29:53.286Z,91.30
2017-08-12T23:32:27.197Z,91.20
2017-08-12T23:35:00.996Z,91.10
2017-08-12T23:37:34.807Z,91.30
2017-08-12T23:40:13.346Z,91.50
2017-08-12T23:42:59.537Z,91.50
2017-08-12T23:45:35.471Z,91.40
2017-08-12T23:48:09.230Z,91.40
2017-08-12T23:50:43.134Z,91.40
2017-08-12T23:53:17.091Z,91.50
2017-08-12T23:55:52.752Z,91.60
2017-08-12T23:58:28.985Z,91.70
